Big Bay, Michigan
Current Conditions -  °F | °C
As of 8:45 AM on Friday 24 Oct 2014 (Local Time) from KSAW Reporting Station
Moderate Fog Moderate Fog  
Wind Chill: 40°   Ceiling: 100
Heat Index: 43°   Visibility: 0mi
Dew Point: 41°   Wind: 5mph
Humidity: 93%   Direction: 200°SSW
Pressure: 29.97"   Gusts: NA
Location:  46.82°N, 87.73°W
Report Text: KSAW 241245Z 20004KT M1/4SM FG OVC001 06/05 A2997
Loading
Personal Weather Stations






























Interactive Weather Map
Tropical Storm Tracking
New forecast layout! Learn more

10-Day Weather Forecast

Advertisements
Track Severe Weather on mobile